Fecha, hora, temperatura, viento dirección y velocidad, humedad y presión.

  • 23-01-2020 21:00:00 | 8.20°C | Este |5.00 km/h | 85.00% | 1002.60 hPa
  • 23-01-2020 20:00:00 | 8.00°C | Sur |10.00 km/h | 92.00% | 1002.30 hPa
  • 23-01-2020 19:00:00 | 7.80°C | Sur |10.00 km/h | 92.00% | 1002.10 hPa
  • 23-01-2020 18:00:00 | 9.60°C | Este |4.00 km/h | 86.00% | 1001.90 hPa
  • 23-01-2020 17:00:00 | 10.40°C | Este |10.00 km/h | 81.00% | 1001.70 hPa
  • 23-01-2020 16:00:00 | 11.40°C | Este |15.00 km/h | 75.00% | 1001.80 hPa
  • 23-01-2020 15:00:00 | 10.90°C | Este |9.00 km/h | 71.00% | 1002.30 hPa
  • 23-01-2020 14:00:00 | 10.20°C | Este |5.00 km/h | 74.00% | 1003.10 hPa
  • 23-01-2020 13:00:00 | 10.00°C | Sur |4.00 km/h | 74.00% | 1003.40 hPa
  • 23-01-2020 12:00:00 | 7.60°C | Este |5.00 km/h | 83.00% | 1003.70 hPa
  • 23-01-2020 11:00:00 | 5.10°C | Sudoeste |18.00 km/h | 90.00% | 1003.30 hPa
  • 23-01-2020 10:00:00 | 4.60°C | Sudoeste |15.00 km/h | 93.00% | 1003.40 hPa
  • 23-01-2020 09:00:00 | 4.10°C | Sudoeste |16.00 km/h | 96.00% | 1003.10 hPa
  • 23-01-2020 08:00:00 | 5.10°C | Sur |19.00 km/h | 91.00% | 1003.00 hPa
  • 23-01-2020 07:00:00 | 5.30°C | Sur |15.00 km/h | 93.00% | 1002.90 hPa
  • 23-01-2020 06:00:00 | 5.30°C | Sur |15.00 km/h | 96.00% | 1003.00 hPa
  • 23-01-2020 05:00:00 | 5.80°C | Sudoeste |15.00 km/h | 98.00% | 1003.60 hPa
  • 23-01-2020 04:00:00 | 5.70°C | Sudoeste |14.00 km/h | 100.00% | 1004.00 hPa
  • 23-01-2020 03:00:00 | 5.50°C | Sur |12.00 km/h | 100.00% | 1004.50 hPa
  • 23-01-2020 02:00:00 | 4.70°C | Sur |8.00 km/h | 100.00% | 1004.60 hPa
  • 23-01-2020 01:00:00 | 4.20°C | Sudeste |6.00 km/h | 100.00% | 1004.80 hPa
  • 23-01-2020 00:00:00 | 4.80°C | Sur |9.00 km/h | 100.00% | 1004.90 hPa
  • 22-01-2020 23:00:00 | 4.80°C | Sudeste |11.00 km/h | 100.00% | 1004.90 hPa
  • 22-01-2020 22:00:00 | 6.00°C | 0 |0.00 km/h | 100.00% | 1005.10 hPa
    • diseño web asturias Información sobre el estado de las mareas, altura de la marejada, temperatura del agua y otros datos de Gijón en Asturias.

      Surf Gijón